Belize - Landivar, Belize

9:10 AM CST on July 30, 2014 (GMT -0600)
Philip S W Goldson International (MZBZ) Elev 16 ft | 17.54 °N, 88.31 °W | Change Station

Current weather conditions updated 10 minutes ago

Scattered Clouds
Scattered Clouds
86 °F
Feels Like 97 °F
N
5
Wind Variable Wind from SSE

Today is forecast to be Cooler than yesterday.

Today
High -- | Low -- °F
--% Chance of Precip.
Yesterday
High -- | Low -- °F
Precip. -- in
5:31 AM 6:26 PM
Waxing Crescent, 12% visible
Pressure 30.03 in
Visibility 6.2 miles
Clouds Scattered Clouds 2200 ft
Heat Index 97 °F
Dew Point 77 °F
Humidity 74%
Rainfall 0.00 in
Snow Depth Not available.
UV 8 out of 12
Pollen Not available.
Air Quality Not available.
Flu Activity Not available.
METAR MZBZ 301500Z 15004KT 9999 SCT022 30/25 A3003 Q1016 NOSIG

More Conditions Fewer Conditions

Pressure 30.03 in
Visibility 6.2 miles
Clouds Scattered Clouds 2200 ft
Heat Index 97 °F
Dew Point 77 °F
Humidity 74%
Rainfall 0.00 in
Snow Depth Not available.
UV 8 out of 12
Pollen Not available.
Air Quality Not available.
Flu Activity Not available.
METAR MZBZ 301500Z 15004KT 9999 SCT022 30/25 A3003 Q1016 NOSIG

More Conditions Fewer Conditions

10-Day Weather Forecast

Almanac

Astronomy

Jul. 30, 2014 Rise Set
Actual Time 5:31 AM CST 6:26 PM CST
Civil Twilight 5:08 AM CST 6:50 PM CST
Nautical Twilight 4:40 AM CST 7:17 PM CST
Astronomical Twilight 4:13 AM CST 7:45 PM CST
Moon 8:25 AM CST 8:50 PM CST
Length of Visible Light 13h 41m
Length of Day
12h 55m
Tomorrow will be 0m 43s shorter.
Waxing Crescent, 12% of the Moon is Illuminated
Today
Waxing Crescent
Aug 3
First Quarter
Aug 10
Full
Aug 17
Last Quarter
Aug 25
New

Today's Extremes

Country Highs Country Lows

Community

WunderPhotos

Upload Photos

1,739,107 photos uploaded!

WunderBlogs® & News

By Dr. Jeff Masters
Director of Meteorology, Weather Underground
By Kari Strenfel
Meteorologist, Weather Underground
By Christopher C. Burt
Weather Historian, Weather Underground
July 30, 2014
July 30, 2014
July 30, 2014

Nearby

Snow Depth

Not available.

Earthquake Activity

City Distance Mag. Time & Date
No recent earthquake activity has been reported nearby.
Minimum magnitude displayed is 2.5.

Coastal Water Temperatures

Place Temperature
No Stations Reporting

Nearby Weather Stations

Station Location Temp. Heat Index Dew Point Humidity Wind Precip. Elev Updated Type
Caye Caulker Village, Caye Caulker 85.4 °F 98 °F 79 °F 81% SE  at  5.8 mph 0.00 in / hr 40 ft 9:10 AM CST Rapid Fire

Show More Stations Show Fewer Stations